Time;durP1;ratioP1;P1;durP2;ratioP2;P2;SDS_P1;SDS_P2;PMS_P1;PMS_P2;Temp;Humidity;BMP_temperature;BMP_pressure;BME280_temperature;BME280_humidity;BME280_pressure;Samples;Min_cycle;Max_cycle;Signal;HPM_P1;HPM_P2
2022/10/07 00:01:29;;;;;;;0.40;0.40;;;11.50;99.90;12.40;102544.00;;;;5094807;28;20257;-80
2022/10/07 00:03:55;;;;;;;0.30;0.30;;;11.40;99.90;12.50;102544.00;;;;5094665;28;20268;-81
2022/10/07 00:06:21;;;;;;;0.30;0.30;;;11.40;99.90;12.40;102537.00;;;;5095865;28;20284;-80
2022/10/07 00:08:53;;;;;;;1.57;1.47;;;11.50;99.90;12.50;102523.00;;;;5094513;28;20181;-80
2022/10/07 00:11:22;;;;;;;0.30;0.30;;;11.50;99.90;12.30;102520.00;;;;5095661;28;20184;-81
2022/10/07 00:13:52;;;;;;;0.60;0.60;;;11.40;99.90;12.40;102534.00;;;;5094681;28;20639;-80
2022/10/07 00:16:28;;;;;;;0.77;0.77;;;11.40;99.90;12.20;102524.00;;;;5094778;28;20197;-80
2022/10/07 00:18:58;;;;;;;0.73;0.73;;;11.40;99.90;12.20;102524.00;;;;5094622;28;20173;-79
2022/10/07 00:21:28;;;;;;;1.07;0.97;;;11.40;99.90;12.10;102528.00;;;;5077592;28;20224;-80
2022/10/07 00:23:54;;;;;;;3.80;3.50;;;11.40;99.90;12.30;102526.00;;;;5094196;28;20315;-80
2022/10/07 00:26:23;;;;;;;0.53;0.53;;;11.40;99.90;12.30;102520.00;;;;5095539;28;20551;-79
2022/10/07 00:28:50;;;;;;;1.33;0.87;;;11.40;99.90;12.60;102518.00;;;;5094297;28;20259;-84
2022/10/07 00:31:32;;;;;;;0.67;0.67;;;11.50;99.90;12.50;102515.00;;;;5094046;28;20185;-84
2022/10/07 00:34:02;;;;;;;3.10;1.27;;;11.60;99.90;12.40;102520.00;;;;5093880;28;20588;-81
2022/10/07 00:36:33;;;;;;;0.30;0.30;;;11.50;99.90;12.30;102522.00;;;;5093910;28;20200;-81
2022/10/07 00:39:06;;;;;;;0.30;0.30;;;11.40;99.90;11.70;102521.00;;;;5093975;28;20173;-82
2022/10/07 00:41:36;;;;;;;0.37;0.37;;;11.40;99.90;11.60;102469.00;;;;5111251;28;20190;-82
2022/10/07 00:44:30;;;;;;;0.40;0.40;;;11.40;99.90;11.60;102465.00;;;;5093810;28;20173;-81
2022/10/07 00:47:04;;;;;;;0.30;0.30;;;11.30;99.90;11.40;102506.00;;;;5095128;28;20188;-81
2022/10/07 00:49:40;;;;;;;4.63;1.47;;;11.30;99.90;11.40;102460.00;;;;5093952;28;20202;-82
2022/10/07 00:52:06;;;;;;;0.30;0.30;;;11.20;99.90;11.50;102521.00;;;;5093404;28;20212;-82
2022/10/07 00:54:32;;;;;;;0.80;0.80;;;11.20;99.90;11.40;102507.00;;;;5093209;28;20267;-82
2022/10/07 00:56:58;;;;;;;0.30;0.30;;;11.20;99.90;11.30;102505.00;;;;5093858;28;20594;-81
2022/10/07 00:59:25;;;;;;;0.70;0.70;;;11.10;99.90;11.40;102484.00;;;;5095029;28;20169;-81
2022/10/07 01:01:50;;;;;;;0.30;0.30;;;11.00;99.90;11.30;102483.00;;;;5093731;28;20651;-80
2022/10/07 01:04:19;;;;;;;0.30;0.30;;;11.10;99.90;11.20;102497.00;;;;5094770;28;20214;-81
2022/10/07 01:06:45;;;;;;;1.00;0.97;;;11.00;99.90;11.30;102440.00;;;;5094326;28;20184;-79
2022/10/07 01:09:13;;;;;;;0.30;0.30;;;11.00;99.90;11.30;102497.00;;;;5094643;28;20178;-79
2022/10/07 01:12:23;;;;;;;0.50;0.47;;;11.00;99.90;11.00;102477.00;;;;5093885;28;20191;-79
2022/10/07 01:15:33;;;;;;;1.03;1.03;;;10.90;99.90;11.20;102466.00;;;;5105390;28;20195;-80
2022/10/07 01:18:39;;;;;;;0.40;0.40;;;11.00;99.90;11.00;102482.00;;;;5091220;28;20188;-79
2022/10/07 01:21:38;;;;;;;0.30;0.30;;;10.90;99.90;11.10;102471.00;;;;5093115;28;20183;-79
2022/10/07 01:24:40;;;;;;;0.67;0.67;;;10.90;99.90;11.10;102465.00;;;;5093212;28;20167;-79
2022/10/07 01:27:18;;;;;;;0.30;0.30;;;10.90;99.90;11.20;102455.00;;;;5110141;28;20176;-79
2022/10/07 01:29:57;;;;;;;0.30;0.30;;;10.80;99.90;11.20;102454.00;;;;5075961;28;20178;-80
2022/10/07 01:32:43;;;;;;;1.17;0.50;;;10.90;99.90;11.00;102459.00;;;;5076071;28;20227;-81
2022/10/07 01:35:17;;;;;;;0.90;0.90;;;10.80;99.90;11.20;102455.00;;;;5092925;28;20524;-81
2022/10/07 01:37:50;;;;;;;1.00;1.00;;;10.90;99.90;11.00;102448.00;;;;5092880;28;20664;-81
2022/10/07 01:40:23;;;;;;;0.30;0.30;;;10.80;99.90;10.90;102449.00;;;;5092991;28;20178;-81
2022/10/07 01:42:50;;;;;;;0.40;0.40;;;10.80;99.90;10.90;102438.00;;;;5092995;28;20264;-76
2022/10/07 01:45:21;;;;;;;0.30;0.30;;;10.80;99.90;10.80;102447.00;;;;5092765;28;20188;-76
2022/10/07 01:47:51;;;;;;;0.60;0.60;;;10.60;99.90;11.00;102444.00;;;;5092736;28;20876;-76
2022/10/07 01:50:23;;;;;;;0.43;0.43;;;10.70;99.90;11.10;102438.00;;;;5076182;28;20199;-77
2022/10/07 01:53:39;;;;;;;2.73;1.23;;;10.70;99.90;10.90;102430.00;;;;5092549;28;20216;-77
2022/10/07 01:56:21;;;;;;;0.87;0.87;;;10.60;99.90;10.90;102426.00;;;;5084275;28;20198;-77
2022/10/07 01:59:24;;;;;;;4.27;3.90;;;10.70;99.90;11.00;102429.00;;;;5109524;28;20177;-81
2022/10/07 02:01:56;;;;;;;0.30;0.30;;;10.70;99.90;11.10;102415.00;;;;5092747;28;20285;-81
2022/10/07 02:05:01;;;;;;;0.30;0.30;;;10.80;99.90;11.00;102360.00;;;;5093678;28;20211;-80
2022/10/07 02:07:47;;;;;;;0.30;0.30;;;10.70;99.90;11.10;102406.00;;;;5109189;28;20183;-81
2022/10/07 02:10:25;;;;;;;0.30;0.30;;;10.70;99.90;11.10;102410.00;;;;5093555;28;20624;-81
2022/10/07 02:13:03;;;;;;;0.30;0.30;;;10.70;99.90;10.90;102398.00;;;;5093710;28;20293;-81
2022/10/07 02:15:47;;;;;;;0.73;0.73;;;10.70;99.90;10.70;102389.00;;;;5093587;28;20241;-81
2022/10/07 02:18:19;;;;;;;1.07;1.07;;;10.60;99.90;10.90;102316.00;;;;5091868;28;20241;-81
2022/10/07 02:20:50;;;;;;;0.30;0.30;;;10.60;99.90;10.80;102322.00;;;;5092165;28;20239;-81
2022/10/07 02:23:18;;;;;;;3.40;1.60;;;10.60;99.90;10.90;102368.00;;;;5092202;28;20181;-80
2022/10/07 02:25:52;;;;;;;0.30;0.30;;;10.60;99.90;10.90;102375.00;;;;5092083;28;20176;-78
2022/10/07 02:28:24;;;;;;;0.40;0.40;;;10.60;99.90;10.60;102349.00;;;;5092035;28;20699;-79
2022/10/07 02:30:55;;;;;;;0.40;0.40;;;10.60;99.90;10.80;102316.00;;;;5092270;28;20186;-79
2022/10/07 02:33:30;;;;;;;0.40;0.40;;;10.60;99.90;10.70;102356.00;;;;5091825;28;20241;-79
2022/10/07 02:36:09;;;;;;;0.30;0.30;;;10.50;99.90;10.60;102355.00;;;;5092282;28;20514;-79
2022/10/07 02:38:42;;;;;;;0.30;0.30;;;10.50;99.90;10.80;102350.00;;;;5092368;28;20209;-80
2022/10/07 02:41:50;;;;;;;0.30;0.30;;;10.50;99.90;10.60;102356.00;;;;5091842;28;20186;-80
2022/10/07 02:44:25;;;;;;;0.50;0.50;;;10.50;99.90;10.60;102355.00;;;;5089934;28;20245;-80
2022/10/07 02:46:58;;;;;;;0.30;0.30;;;10.50;99.90;10.70;102336.00;;;;5092983;28;20230;-80
2022/10/07 02:49:37;;;;;;;2.00;0.90;;;10.50;99.90;10.70;102343.00;;;;5091743;28;20283;-79
2022/10/07 02:52:18;;;;;;;0.33;0.33;;;10.40;99.90;10.50;102325.00;;;;5092218;28;20210;-78
2022/10/07 02:54:53;;;;;;;0.30;0.30;;;10.40;99.90;10.50;102342.00;;;;5091860;28;20180;-77
2022/10/07 02:57:23;;;;;;;0.30;0.30;;;10.40;99.90;10.50;102326.00;;;;5093212;28;20214;-77
2022/10/07 02:59:54;;;;;;;0.50;0.50;;;10.30;99.90;10.30;102322.00;;;;5091550;28;20177;-77
2022/10/07 03:02:49;;;;;;;1.13;0.50;;;10.30;99.90;10.30;102331.00;;;;5091457;28;20241;-76
2022/10/07 03:05:18;;;;;;;0.67;0.67;;;10.30;99.90;10.50;102321.00;;;;5089695;28;20193;-76
2022/10/07 03:07:52;;;;;;;3.27;0.80;;;10.30;99.90;10.50;102330.00;;;;5091576;28;20507;-76
2022/10/07 03:10:20;;;;;;;0.50;0.50;;;10.30;99.90;10.40;102314.00;;;;5091848;28;20185;-76
2022/10/07 03:12:49;;;;;;;0.60;0.60;;;10.30;99.90;10.60;102329.00;;;;5091859;28;20239;-76
2022/10/07 03:15:19;;;;;;;1.83;1.70;;;10.40;99.90;10.60;102324.00;;;;5092024;28;20266;-76
2022/10/07 03:17:47;;;;;;;0.50;0.50;;;10.40;99.90;10.50;102307.00;;;;5091907;28;20515;-80
2022/10/07 03:20:17;;;;;;;0.30;0.30;;;10.40;99.90;10.50;102307.00;;;;5091449;28;20176;-76
2022/10/07 03:22:44;;;;;;;0.23;0.23;;;10.30;99.90;10.40;102317.00;;;;5080390;28;20186;-77
2022/10/07 03:25:11;;;;;;;0.37;0.37;;;10.30;99.90;10.60;102275.00;;;;5075501;28;20185;-76
2022/10/07 03:27:41;;;;;;;0.40;0.40;;;10.30;99.90;10.60;102311.00;;;;5075305;28;20322;-77
2022/10/07 03:30:09;;;;;;;0.30;0.30;;;10.30;99.90;10.70;102307.00;;;;5075844;28;20284;-76
2022/10/07 03:32:38;;;;;;;0.30;0.30;;;10.40;99.90;10.70;102296.00;;;;5074724;28;20232;-76
2022/10/07 03:35:04;;;;;;;0.30;0.30;;;10.40;99.90;10.80;102305.00;;;;5075090;28;20197;-76
2022/10/07 03:37:33;;;;;;;0.83;0.83;;;10.40;99.90;10.90;102312.00;;;;5074861;28;20186;-77
2022/10/07 03:39:58;;;;;;;0.47;0.47;;;10.50;99.90;10.50;102307.00;;;;5075223;28;20678;-77
2022/10/07 03:42:29;;;;;;;1.67;0.83;;;10.40;99.90;10.50;102303.00;;;;5076038;28;20189;-78
2022/10/07 03:45:03;;;;;;;0.30;0.30;;;10.30;99.90;10.50;102298.00;;;;5075121;28;20185;-79
2022/10/07 03:47:28;;;;;;;0.30;0.30;;;10.30;99.90;10.60;102306.00;;;;5075755;28;20190;-78
2022/10/07 03:49:57;;;;;;;0.60;0.60;;;10.30;99.90;10.50;102287.00;;;;5074699;28;20184;-79
2022/10/07 03:52:26;;;;;;;0.30;0.30;;;10.30;99.90;10.50;102265.00;;;;5091307;28;20213;-79
2022/10/07 03:54:55;;;;;;;0.30;0.30;;;10.20;99.90;10.50;102285.00;;;;5076098;28;20173;-80
2022/10/07 04:00:06;;;;;;;0.30;0.30;;;10.30;99.90;10.50;102285.00;;;;5075415;28;20737;-78
2022/10/07 04:02:32;;;;;;;3.67;3.40;;;10.20;99.90;10.50;102284.00;;;;5075774;28;20203;-78
2022/10/07 04:05:07;;;;;;;0.37;0.37;;;10.20;99.90;10.70;102291.00;;;;5075049;28;20180;-78
2022/10/07 04:07:33;;;;;;;0.30;0.30;;;10.40;99.90;10.70;102282.00;;;;5074350;28;20177;-78
2022/10/07 04:09:59;;;;;;;0.33;0.33;;;10.40;99.90;10.50;102264.00;;;;5091288;28;20252;-78
2022/10/07 04:12:32;;;;;;;0.30;0.30;;;10.40;99.90;10.30;102287.00;;;;5075402;28;20659;-78
2022/10/07 04:15:03;;;;;;;0.40;0.40;;;10.20;99.90;10.40;102285.00;;;;5075523;28;20176;-78
2022/10/07 04:17:29;;;;;;;0.30;0.30;;;10.20;99.90;10.50;102271.00;;;;5091039;28;20576;-78
2022/10/07 04:19:55;;;;;;;0.87;0.87;;;10.20;99.90;10.60;102276.00;;;;5074517;28;20222;-78
2022/10/07 04:22:23;;;;;;;0.30;0.30;;;10.30;99.90;10.30;102283.00;;;;5073709;28;20181;-77
2022/10/07 04:27:37;;;;;;;0.30;0.30;;;10.20;99.90;10.30;102273.00;;;;5074122;28;20648;-81
2022/10/07 04:30:13;;;;;;;0.30;0.30;;;10.20;99.90;10.30;102224.00;;;;5075172;28;20260;-84
2022/10/07 04:32:45;;;;;;;0.30;0.30;;;10.10;99.90;10.30;102266.00;;;;5074802;28;20673;-83
2022/10/07 04:35:11;;;;;;;1.23;0.40;;;10.20;99.90;10.20;102205.00;;;;5073907;28;20268;-84
2022/10/07 04:37:36;;;;;;;0.80;0.50;;;10.10;99.90;10.20;102272.00;;;;5090451;28;20276;-79
2022/10/07 04:40:03;;;;;;;0.37;0.37;;;10.10;99.90;10.40;102278.00;;;;5073853;28;20256;-80
2022/10/07 04:45:19;;;;;;;1.63;1.10;;;10.10;99.90;10.30;102271.00;;;;5074258;28;20234;-77
2022/10/07 04:47:45;;;;;;;0.57;0.57;;;10.10;99.90;10.50;102255.00;;;;5073536;28;20234;-78
2022/10/07 04:50:12;;;;;;;0.30;0.30;;;10.20;99.90;10.30;102276.00;;;;5074740;28;20683;-77
2022/10/07 04:52:42;;;;;;;0.40;0.40;;;10.10;99.90;10.50;102263.00;;;;5073413;28;20206;-78
2022/10/07 04:55:11;;;;;;;0.30;0.30;;;10.20;99.90;10.00;102272.00;;;;5073763;28;20183;-77
2022/10/07 04:57:37;;;;;;;0.97;0.97;;;10.10;99.90;10.20;102274.00;;;;5073115;28;20204;-77
2022/10/07 05:00:05;;;;;;;1.57;1.57;;;10.00;99.90;10.10;102250.00;;;;5073565;28;20264;-77
2022/10/07 05:02:31;;;;;;;0.40;0.40;;;10.00;99.90;10.10;102205.00;;;;5072896;28;20288;-78
2022/10/07 05:04:59;;;;;;;0.30;0.30;;;10.00;99.90;10.10;102268.00;;;;5073600;28;20267;-78
2022/10/07 05:07:26;;;;;;;0.37;0.37;;;10.00;99.90;10.00;102263.00;;;;5073262;28;20176;-77
2022/10/07 05:09:52;;;;;;;0.30;0.30;;;10.00;99.90;10.20;102261.00;;;;5073535;28;20179;-77
2022/10/07 05:12:18;;;;;;;0.40;0.40;;;10.00;99.90;10.00;102263.00;;;;5074027;28;20203;-78
2022/10/07 05:14:45;;;;;;;0.40;0.40;;;9.90;99.90;10.10;102265.00;;;;5073108;28;20273;-78
2022/10/07 05:17:12;;;;;;;0.30;0.30;;;9.90;99.90;10.10;102255.00;;;;5073056;28;20184;-81
2022/10/07 05:19:39;;;;;;;0.30;0.30;;;9.90;99.90;10.10;102257.00;;;;5072839;28;20652;-77
2022/10/07 05:22:13;;;;;;;0.30;0.30;;;9.90;99.90;10.00;102217.00;;;;5072966;28;20210;-76
2022/10/07 05:24:38;;;;;;;0.40;0.40;;;9.90;99.90;10.10;102243.00;;;;5074068;28;20190;-80
2022/10/07 05:27:04;;;;;;;0.30;0.30;;;9.90;99.90;9.90;102218.00;;;;5073854;28;20177;-78
2022/10/07 05:29:30;;;;;;;0.50;0.50;;;9.80;99.90;9.90;102189.00;;;;5073906;28;20241;-80
2022/10/07 05:31:56;;;;;;;0.43;0.43;;;9.80;99.90;9.90;102246.00;;;;5073648;28;20212;-79
2022/10/07 05:34:22;;;;;;;0.30;0.30;;;9.80;99.90;9.90;102241.00;;;;5089531;28;20186;-78
2022/10/07 05:36:48;;;;;;;0.43;0.43;;;9.80;99.90;9.90;102203.00;;;;5073315;28;20171;-79
2022/10/07 05:39:14;;;;;;;0.30;0.30;;;9.80;99.90;10.10;102241.00;;;;5072623;28;20244;-78
2022/10/07 05:41:40;;;;;;;0.30;0.30;;;9.90;99.90;10.00;102238.00;;;;5073259;28;20173;-78
2022/10/07 05:44:06;;;;;;;0.30;0.30;;;9.90;99.90;10.30;102251.00;;;;5089442;28;20546;-80
2022/10/07 05:46:34;;;;;;;0.50;0.50;;;10.00;99.90;10.20;102240.00;;;;5072380;28;20189;-80
2022/10/07 05:49:00;;;;;;;0.67;0.67;;;10.00;99.90;10.30;102242.00;;;;5072606;28;20194;-77
2022/10/07 05:51:28;;;;;;;4.47;1.10;;;10.10;99.90;10.10;102172.00;;;;5072652;28;20174;-79
2022/10/07 05:53:55;;;;;;;0.60;0.60;;;10.10;99.90;10.20;102172.00;;;;5073857;28;20184;-78
2022/10/07 05:56:26;;;;;;;0.30;0.30;;;10.10;99.90;10.30;102218.00;;;;5089133;28;20193;-75
2022/10/07 05:58:56;;;;;;;0.50;0.50;;;10.20;99.90;10.30;102173.00;;;;5089017;28;20733;-76
2022/10/07 06:01:29;;;;;;;0.60;0.60;;;10.20;99.90;10.20;102210.00;;;;5089069;28;20208;-76
2022/10/07 06:03:56;;;;;;;0.40;0.40;;;10.10;99.90;10.30;102192.00;;;;5089101;28;20196;-76
2022/10/07 06:06:24;;;;;;;0.70;0.70;;;10.20;99.90;10.30;102221.00;;;;5089255;28;20188;-76
2022/10/07 06:08:51;;;;;;;0.33;0.33;;;10.20;99.90;10.30;102210.00;;;;5089196;28;20187;-78
2022/10/07 06:14:05;;;;;;;0.50;0.50;;;10.20;99.90;10.50;102201.00;;;;5086690;28;20238;-81
2022/10/07 06:16:40;;;;;;;0.30;0.30;;;10.20;99.90;10.70;102205.00;;;;5089046;28;20184;-81
2022/10/07 06:19:21;;;;;;;1.00;0.97;;;10.30;99.90;10.60;102101.00;;;;5088907;28;20178;-79
2022/10/07 06:21:47;;;;;;;0.30;0.30;;;10.30;99.90;10.50;102193.00;;;;5087912;28;20243;-77
2022/10/07 06:24:13;;;;;;;0.30;0.30;;;10.30;99.90;10.40;102189.00;;;;5088659;28;20266;-80
2022/10/07 06:26:41;;;;;;;0.40;0.40;;;10.20;99.90;10.30;102194.00;;;;5098153;28;20272;-78
2022/10/07 06:29:07;;;;;;;0.50;0.50;;;10.20;99.90;10.30;102183.00;;;;5072152;28;20193;-80
2022/10/07 06:31:34;;;;;;;0.43;0.43;;;10.20;99.90;10.60;102198.00;;;;5071699;28;20659;-79
2022/10/07 06:34:00;;;;;;;0.50;0.50;;;10.30;99.90;10.50;102195.00;;;;5104633;28;20178;-79
2022/10/07 06:36:28;;;;;;;0.30;0.30;;;10.30;99.90;10.20;102192.00;;;;5108928;28;20261;-78
2022/10/07 06:38:54;;;;;;;0.30;0.30;;;10.20;99.90;10.50;102192.00;;;;5093091;28;20187;-77
2022/10/07 06:41:22;;;;;;;0.50;0.50;;;10.30;99.90;10.80;102193.00;;;;5109238;28;20281;-76
2022/10/07 06:43:48;;;;;;;0.30;0.30;;;10.40;99.90;10.80;102185.00;;;;5109387;28;20171;-77
2022/10/07 06:46:19;;;;;;;0.40;0.40;;;10.50;99.90;10.70;102190.00;;;;5109204;28;20175;-76
2022/10/07 06:48:46;;;;;;;0.30;0.30;;;10.50;99.90;10.60;102186.00;;;;5108915;28;20185;-77
2022/10/07 06:51:18;;;;;;;0.63;0.63;;;10.50;99.90;11.20;102197.00;;;;5108962;28;20293;-80
2022/10/07 06:53:45;;;;;;;0.33;0.33;;;10.70;99.90;11.10;102195.00;;;;5093508;28;20266;-78
2022/10/07 06:56:34;;;;;;;0.30;0.30;;;10.70;99.90;11.10;102190.00;;;;5095786;28;20180;-77
2022/10/07 06:59:08;;;;;;;1.70;0.77;;;10.90;99.90;11.10;102198.00;;;;5106570;28;20193;-79
2022/10/07 07:01:36;;;;;;;1.13;1.13;;;10.90;99.90;11.10;102169.00;;;;5095628;28;20202;-80
2022/10/07 07:04:05;;;;;;;0.30;0.30;;;10.90;99.90;11.00;102199.00;;;;5112901;28;20559;-80
2022/10/07 07:06:40;;;;;;;0.83;0.83;;;10.90;99.90;11.50;102193.00;;;;5097115;28;20263;-76
2022/10/07 07:09:10;;;;;;;3.03;0.67;;;11.10;99.90;11.30;102203.00;;;;5095452;28;20254;-81
2022/10/07 07:11:59;;;;;;;0.60;0.60;;;11.20;99.90;11.50;102196.00;;;;5095759;28;20188;-81
2022/10/07 07:14:25;;;;;;;0.30;0.30;;;11.30;99.90;11.50;102200.00;;;;5112650;28;20174;-81
2022/10/07 07:17:39;;;;;;;2.07;1.40;;;11.30;99.90;11.50;102189.00;;;;5097046;28;20201;-82
2022/10/07 07:21:06;;;;;;;0.40;0.40;;;11.40;99.90;11.30;102199.00;;;;5107489;28;20180;-82
2022/10/07 07:23:52;;;;;;;0.60;0.60;;;11.30;99.90;11.60;102144.00;;;;5112392;28;20190;-81
2022/10/07 07:26:59;;;;;;;0.67;0.67;;;11.50;99.90;11.60;102184.00;;;;5112060;28;20204;-81
2022/10/07 07:30:03;;;;;;;0.60;0.60;;;11.60;99.90;12.00;102190.00;;;;5093747;28;20699;-81
2022/10/07 07:32:54;;;;;;;1.10;0.90;;;11.70;99.90;12.50;102204.00;;;;5084112;28;20238;-83
2022/10/07 07:36:14;;;;;;;0.30;0.30;;;12.10;99.90;13.20;102212.00;;;;5091558;28;20180;-85
2022/10/07 07:38:54;;;;;;;0.40;0.40;;;12.60;99.90;13.40;102210.00;;;;5091665;28;20200;-84
2022/10/07 07:41:49;;;;;;;0.40;0.40;;;12.90;99.90;14.00;102198.00;;;;5074941;28;20334;-68
2022/10/07 07:44:17;;;;;;;0.20;0.20;;;13.40;99.90;13.80;102197.00;;;;5074929;28;20182;-75
2022/10/07 07:46:50;;;;;;;0.20;0.20;;;13.50;99.90;14.20;102198.00;;;;5074534;28;20193;-80
2022/10/07 07:49:18;;;;;;;0.20;0.20;;;13.70;99.90;13.70;102203.00;;;;5091373;28;20206;-73
2022/10/07 07:51:47;;;;;;;0.20;0.20;;;13.60;99.90;13.20;102197.00;;;;5094725;28;20209;-76
2022/10/07 07:54:14;;;;;;;0.60;0.60;;;13.40;99.90;13.90;102201.00;;;;5094848;28;20177;-76
2022/10/07 07:56:41;;;;;;;4.00;0.83;;;13.50;99.90;14.50;102197.00;;;;5111880;28;20177;-75
2022/10/07 07:59:07;;;;;;;0.90;0.90;;;13.90;99.90;14.00;102209.00;;;;5096678;28;20219;-76
2022/10/07 08:01:34;;;;;;;0.20;0.20;;;14.00;99.90;14.40;102196.00;;;;5096093;28;20195;-74
2022/10/07 08:04:00;;;;;;;0.93;0.80;;;14.10;99.90;15.00;102223.00;;;;5094427;28;20218;-82
2022/10/07 08:06:27;;;;;;;0.20;0.20;;;14.50;99.90;15.20;102218.00;;;;5094913;28;20179;-76
2022/10/07 08:08:57;;;;;;;0.20;0.20;;;14.80;99.90;14.80;102215.00;;;;5095691;28;20640;-71
2022/10/07 08:11:27;;;;;;;0.23;0.23;;;14.80;99.90;14.70;102205.00;;;;5094605;28;20184;-72
2022/10/07 08:13:56;;;;;;;4.43;1.80;;;14.60;99.90;15.20;102214.00;;;;5095060;28;20178;-72
2022/10/07 08:16:27;;;;;;;0.30;0.30;;;14.80;99.90;15.40;102167.00;;;;5095882;28;20190;-71
2022/10/07 08:18:58;;;;;;;0.40;0.40;;;15.10;99.90;15.00;102221.00;;;;5089777;28;20659;-70
2022/10/07 08:21:31;;;;;;;0.20;0.20;;;15.00;99.90;15.60;102219.00;;;;5083011;28;20203;-70
2022/10/07 08:24:01;;;;;;;0.20;0.20;;;15.20;99.90;16.80;102228.00;;;;5074522;28;20259;-70
2022/10/07 08:26:33;;;;;;;0.20;0.20;;;15.90;99.90;17.90;102255.00;;;;5074267;28;20183;-71
2022/10/07 08:29:00;;;;;;;0.67;0.67;;;16.70;99.90;16.50;102255.00;;;;5074298;28;20187;-70
2022/10/07 08:31:34;;;;;;;3.23;0.73;;;16.50;99.90;15.10;102227.00;;;;5073811;28;20191;-70
2022/10/07 08:34:05;;;;;;;0.50;0.50;;;15.60;99.90;15.60;102221.00;;;;5089365;28;20190;-70
2022/10/07 08:36:32;;;;;;;0.30;0.30;;;15.40;99.90;15.60;102221.00;;;;5084793;28;20193;-70
2022/10/07 08:39:00;;;;;;;0.17;0.17;;;15.50;99.90;16.40;102239.00;;;;5108729;28;20184;-70
2022/10/07 08:42:07;;;;;;;0.30;0.30;;;15.80;99.90;16.50;102239.00;;;;5111074;28;20180;-70
2022/10/07 08:44:48;;;;;;;0.53;0.53;;;16.20;99.90;16.70;102186.00;;;;5093223;28;20633;-71
2022/10/07 08:47:59;;;;;;;0.67;0.47;;;16.30;99.90;15.60;102180.00;;;;5111020;28;20190;-70
2022/10/07 08:50:38;;;;;;;0.30;0.30;;;15.70;99.90;16.70;102212.00;;;;5093343;28;20192;-72
2022/10/07 08:53:15;;;;;;;1.00;0.73;;;16.00;99.90;17.00;102203.00;;;;5110716;28;20623;-72
2022/10/07 08:56:13;;;;;;;0.57;0.57;;;16.20;99.90;17.80;102240.00;;;;5110534;28;20220;-72
2022/10/07 08:59:13;;;;;;;0.20;0.20;;;16.90;99.90;17.60;102240.00;;;;5072198;28;20219;-72
2022/10/07 09:02:19;;;;;;;0.97;0.57;;;17.00;99.90;18.10;102245.00;;;;5072396;28;20212;-72
2022/10/07 09:05:33;;;;;;;0.60;0.60;;;17.40;99.90;18.10;102243.00;;;;5071519;28;20676;-72
2022/10/07 09:08:31;;;;;;;0.30;0.30;;;17.50;99.90;17.30;102204.00;;;;5055829;28;20184;-72
2022/10/07 09:11:24;;;;;;;1.80;0.30;;;17.20;99.90;16.70;102224.00;;;;5093944;28;20611;-72
2022/10/07 09:14:43;;;;;;;0.20;0.20;;;16.70;99.90;19.20;102245.00;;;;5092190;28;20196;-72
2022/10/07 09:17:44;;;;;;;0.20;0.20;;;17.50;99.90;19.10;102247.00;;;;5092607;28;20176;-72
2022/10/07 09:21:04;;;;;;;2.90;2.70;;;18.20;99.90;19.90;102276.00;;;;5110218;28;20172;-72
2022/10/07 09:26:26;;;;;;;0.22;0.22;;;18.90;99.90;18.50;102212.00;;;;5073209;28;20573;-72
2022/10/07 09:28:55;;;;;;;0.20;0.20;;;18.50;99.90;18.10;102239.00;;;;5080861;28;20189;-72
2022/10/07 09:31:26;;;;;;;0.20;0.20;;;18.00;99.90;18.20;102245.00;;;;5092942;28;20204;-71
2022/10/07 09:33:55;;;;;;;0.30;0.30;;;17.80;99.90;19.80;102252.00;;;;5092651;28;20611;-72
2022/10/07 09:36:21;;;;;;;0.13;0.13;;;18.50;99.90;18.10;102245.00;;;;5092551;28;20182;-71
2022/10/07 09:38:51;;;;;;;0.20;0.20;;;18.00;99.90;18.50;102185.00;;;;5092742;28;20176;-71
2022/10/07 09:41:31;;;;;;;0.47;0.47;;;17.80;99.90;19.50;102258.00;;;;5091796;28;20172;-71
2022/10/07 09:44:13;;;;;;;6.43;1.40;;;18.50;99.90;18.40;102208.00;;;;5092752;28;20183;-71
2022/10/07 09:46:50;;;;;;;0.20;0.20;;;18.10;99.90;17.50;102213.00;;;;5094169;28;20184;-71
2022/10/07 09:49:28;;;;;;;0.20;0.20;;;17.30;99.90;19.50;102244.00;;;;5093194;28;20246;-71
2022/10/07 09:52:04;;;;;;;0.10;0.10;;;18.00;99.90;19.10;102239.00;;;;5092231;28;20218;-71
2022/10/07 09:54:33;;;;;;;0.10;0.10;;;18.40;99.90;20.90;102249.00;;;;5093470;28;20184;-72
2022/10/07 09:57:03;;;;;;;0.10;0.10;;;19.30;99.90;20.10;102247.00;;;;5092841;28;20162;-72
2022/10/07 09:59:39;;;;;;;0.30;0.30;;;19.20;99.90;20.00;102208.00;;;;5087782;28;20196;-71
2022/10/07 10:02:14;;;;;;;0.10;0.10;;;19.60;99.90;19.10;102240.00;;;;5091831;28;20209;-71
2022/10/07 10:04:49;;;;;;;0.77;0.32;;;18.60;99.90;19.00;102245.00;;;;5104202;28;20210;-71
2022/10/07 10:08:00;;;;;;;0.40;0.40;;;18.60;99.90;19.40;102243.00;;;;5078157;28;20190;-70
2022/10/07 10:10:32;;;;;;;0.10;0.10;;;18.50;99.90;19.70;102232.00;;;;5047080;28;20197;-71
2022/10/07 10:13:04;;;;;;;1.15;0.52;;;18.90;99.90;18.00;102223.00;;;;5072226;28;20227;-70
2022/10/07 10:15:42;;;;;;;2.47;0.77;;;18.20;99.90;18.90;102184.00;;;;5072239;28;20181;-71
2022/10/07 10:18:30;;;;;;;0.40;0.40;;;18.30;99.90;19.80;102233.00;;;;5072378;28;20188;-71
2022/10/07 10:33:58;;;;;;;0.10;0.10;;;18.60;99.90;18.80;102195.00;;;;5070701;28;20573;-70
2022/10/07 10:36:29;;;;;;;0.50;0.50;;;18.30;99.90;19.50;102193.00;;;;5065997;28;20197;-71
2022/10/07 10:39:02;;;;;;;0.10;0.10;;;18.40;99.90;20.50;102180.00;;;;5065650;28;20179;-71
2022/10/07 10:41:51;;;;;;;1.40;0.40;;;19.40;99.90;19.90;102173.00;;;;5063128;28;20245;-71
2022/10/07 10:44:26;;;;;;;0.20;0.20;;;19.40;99.90;20.00;102197.00;;;;5046297;28;20171;-70
2022/10/07 10:47:00;;;;;;;0.20;0.20;;;19.30;99.90;20.50;102195.00;;;;5030195;28;20174;-71
2022/10/07 10:49:57;;;;;;;0.52;0.50;;;19.40;99.90;20.00;102199.00;;;;5029809;28;20175;-71
2022/10/07 10:52:52;;;;;;;0.10;0.10;;;19.60;99.90;19.80;102177.00;;;;5029045;28;20198;-71
2022/10/07 10:55:59;;;;;;;0.10;0.10;;;19.10;99.90;20.50;102175.00;;;;5045558;28;20305;-72
2022/10/07 10:58:57;;;;;;;0.10;0.10;;;19.70;99.90;19.50;102169.00;;;;5008776;28;20238;-71
2022/10/07 11:01:33;;;;;;;0.10;0.10;;;19.60;99.90;20.00;102128.00;;;;5002396;28;20192;-71
2022/10/07 11:04:26;;;;;;;1.55;0.43;;;19.20;99.90;21.60;102133.00;;;;5026635;28;20215;-71
2022/10/07 11:07:28;;;;;;;0.73;0.73;;;20.10;99.90;20.10;102185.00;;;;5045373;28;20175;-71
2022/10/07 11:10:28;;;;;;;0.20;0.20;;;20.40;99.90;20.30;102176.00;;;;5044725;28;20183;-70
2022/10/07 11:13:24;;;;;;;0.10;0.10;;;19.50;99.90;20.90;102173.00;;;;5045463;28;20688;-71
2022/10/07 11:16:07;;;;;;;0.20;0.20;;;19.70;99.90;21.10;102158.00;;;;5028998;28;20163;-71
2022/10/07 11:19:02;;;;;;;1.00;0.30;;;19.90;99.90;19.70;102169.00;;;;5044415;28;20179;-67
2022/10/07 11:22:03;;;;;;;0.95;0.95;;;19.60;99.90;20.30;102148.00;;;;5028183;28;20615;-68
2022/10/07 11:24:55;;;;;;;0.43;0.43;;;19.60;99.90;21.80;102147.00;;;;5011820;28;20271;-68
2022/10/07 11:27:31;;;;;;;0.10;0.10;;;20.20;99.90;21.30;102150.00;;;;5045186;28;20568;-66
2022/10/07 11:30:44;;;;;;;0.10;0.10;;;20.80;99.90;21.90;102144.00;;;;5029501;28;20178;-66
2022/10/07 11:33:49;;;;;;;2.55;0.50;;;20.80;99.90;21.40;102141.00;;;;5032781;28;20218;-67
2022/10/07 11:37:02;;;;;;;0.90;0.50;;;20.70;99.90;20.40;102148.00;;;;5063661;28;20190;-65
2022/10/07 11:39:58;;;;;;;0.28;0.28;;;20.30;99.90;20.70;102141.00;;;;5029403;28;20666;-65
2022/10/07 11:46:38;;;;;;;0.20;0.20;;;20.10;99.90;21.80;102120.00;;;;5028386;28;20274;-66
2022/10/07 11:49:33;;;;;;;1.85;0.57;;;20.70;99.90;20.20;102121.00;;;;5031447;28;20179;-65
2022/10/07 11:52:48;;;;;;;2.72;0.47;;;20.00;99.90;20.30;102117.00;;;;5029809;28;20322;-65
2022/10/07 11:55:57;;;;;;;0.15;0.15;;;20.20;99.90;20.50;102106.00;;;;5014768;28;20206;-66
2022/10/07 11:59:11;;;;;;;0.22;0.13;;;20.00;99.90;20.50;102103.00;;;;5014880;28;20163;-65
2022/10/07 12:02:17;;;;;;;0.70;0.65;;;19.90;99.90;20.50;102098.00;;;;5030428;28;20195;-66